Time;durP1;ratioP1;P1;durP2;ratioP2;P2;SDS_P1;SDS_P2;PMS_P1;PMS_P2;Temp;Humidity;BMP_temperature;BMP_pressure;BME280_temperature;BME280_humidity;BME280_pressure;Samples;Min_cycle;Max_cycle;Signal;HPM_P1;HPM_P2
2021/07/02 00:01:06;;;;;;;7.20;4.38;;;;;;;16.27;70.89;99924.97;2222607;40;20029;-83
2021/07/02 00:02:39;;;;;;;6.93;4.18;;;;;;;16.22;71.00;99917.44;2222885;40;20044;-81
2021/07/02 00:04:11;;;;;;;7.10;4.00;;;;;;;16.23;70.75;99921.81;2222690;40;20030;-83
2021/07/02 00:05:41;;;;;;;8.00;4.22;;;;;;;16.20;70.73;99919.47;2222656;40;20040;-83
2021/07/02 00:07:13;;;;;;;6.45;3.85;;;;;;;16.18;71.15;99914.28;2222380;40;20033;-83
2021/07/02 00:08:45;;;;;;;6.95;4.43;;;;;;;16.18;71.04;99916.13;2222431;40;20110;-79
2021/07/02 00:10:17;;;;;;;7.05;4.32;;;;;;;16.20;71.01;99914.09;2222353;40;20064;-82
2021/07/02 00:11:49;;;;;;;7.57;4.32;;;;;;;16.17;70.72;99915.31;2222472;40;20033;-83
2021/07/02 00:13:21;;;;;;;7.13;4.38;;;;;;;16.15;70.80;99916.50;2222619;40;20075;-82
2021/07/02 00:14:52;;;;;;;7.13;4.07;;;;;;;16.13;71.17;99913.16;2222579;40;20041;-83
2021/07/02 00:16:24;;;;;;;6.80;3.80;;;;;;;16.10;70.90;99911.66;2222543;40;20022;-84
2021/07/02 00:17:55;;;;;;;6.63;4.45;;;;;;;16.08;71.15;99905.63;2222620;40;20049;-84
2021/07/02 00:19:29;;;;;;;8.65;4.38;;;;;;;16.06;71.23;99907.66;2222696;40;20033;-84
2021/07/02 00:21:00;;;;;;;6.45;4.07;;;;;;;16.06;71.38;99908.47;2222676;40;20034;-86
2021/07/02 00:22:33;;;;;;;5.45;3.65;;;;;;;16.06;71.46;99908.47;2222742;40;20029;-83
2021/07/02 00:24:05;;;;;;;5.80;4.15;;;;;;;16.10;70.94;99908.13;2222496;40;20037;-83
2021/07/02 00:25:38;;;;;;;6.53;4.20;;;;;;;16.06;71.09;99900.38;2222671;40;20022;-85
2021/07/02 00:27:10;;;;;;;8.68;4.28;;;;;;;16.10;71.10;99908.13;2222728;40;20017;-83
2021/07/02 00:28:42;;;;;;;6.68;3.90;;;;;;;16.09;71.28;99907.28;2222838;40;20017;-84
2021/07/02 00:30:13;;;;;;;7.70;3.70;;;;;;;16.11;71.04;99909.81;2222537;40;20040;-84
2021/07/02 00:31:45;;;;;;;6.50;3.38;;;;;;;16.16;71.24;99904.69;2222164;40;20079;-81
2021/07/02 00:33:17;;;;;;;6.57;4.10;;;;;;;16.17;71.16;99909.06;2221936;40;20191;-81
2021/07/02 00:34:49;;;;;;;6.38;3.28;;;;;;;16.18;70.81;99903.50;2221511;40;20048;-82
2021/07/02 00:36:19;;;;;;;6.47;4.10;;;;;;;16.24;70.98;99906.47;2221760;40;20321;-81
2021/07/02 00:37:51;;;;;;;5.95;4.15;;;;;;;16.22;71.07;99895.88;2221418;40;20044;-82
2021/07/02 00:39:22;;;;;;;6.90;3.97;;;;;;;16.20;71.01;99898.72;2221732;40;20056;-82
2021/07/02 00:40:55;;;;;;;6.93;4.25;;;;;;;16.17;70.92;99901.81;2221734;40;20022;-82
2021/07/02 00:42:26;;;;;;;6.80;4.05;;;;;;;16.13;71.18;99896.97;2225426;40;20021;-82
2021/07/02 00:43:58;;;;;;;6.47;3.92;;;;;;;16.06;71.31;99886.91;2234702;39;20032;-84
2021/07/02 00:45:30;;;;;;;7.03;3.85;;;;;;;16.07;71.26;99898.56;2234948;39;20036;-85
2021/07/02 00:47:01;;;;;;;6.05;3.65;;;;;;;16.05;71.65;99896.06;2222712;40;20033;-84
2021/07/02 00:48:33;;;;;;;5.38;3.55;;;;;;;16.01;71.82;99894.72;2222515;40;20022;-84
2021/07/02 00:50:05;;;;;;;7.57;3.72;;;;;;;16.00;71.52;99897.63;2222391;40;20040;-84
2021/07/02 00:51:36;;;;;;;6.20;3.58;;;;;;;15.98;71.84;99897.78;2222330;40;20034;-84
2021/07/02 00:53:08;;;;;;;5.15;3.25;;;;;;;15.96;71.86;99897.16;2222441;40;20030;-83
2021/07/02 00:54:42;;;;;;;10.90;4.13;;;;;;;15.93;72.14;99904.75;2222366;40;20042;-84
2021/07/02 00:56:17;;;;;;;6.07;3.47;;;;;;;15.88;72.07;99891.81;2222260;40;20037;-82
2021/07/02 00:57:48;;;;;;;5.70;3.88;;;;;;;15.85;72.50;99895.72;2222269;40;20488;-84
2021/07/02 00:59:19;;;;;;;4.95;3.42;;;;;;;15.84;72.52;99894.03;2222494;40;20030;-83
2021/07/02 01:00:52;;;;;;;7.13;3.55;;;;;;;15.85;72.59;99898.41;2222560;40;20028;-83
2021/07/02 01:02:24;;;;;;;7.38;3.35;;;;;;;15.89;72.27;99897.03;2222727;40;20036;-83
2021/07/02 01:03:56;;;;;;;7.53;4.05;;;;;;;15.88;72.44;99891.81;2222697;40;20022;-84
2021/07/02 01:05:28;;;;;;;5.70;3.65;;;;;;;15.92;72.26;99897.69;2222881;40;20014;-84
2021/07/02 01:07:01;;;;;;;5.55;3.20;;;;;;;15.96;72.42;99899.84;2222799;40;20025;-85
2021/07/02 01:08:33;;;;;;;5.35;3.67;;;;;;;15.97;72.19;99896.09;2222787;40;20029;-85
2021/07/02 01:10:05;;;;;;;6.90;4.13;;;;;;;16.02;71.84;99899.09;2222962;40;20057;-85
2021/07/02 01:11:40;;;;;;;6.93;3.80;;;;;;;16.04;72.07;99896.22;2222896;40;20052;-84
2021/07/02 01:13:13;;;;;;;6.00;3.78;;;;;;;16.04;71.96;99899.75;2222689;40;20042;-84
2021/07/02 01:14:44;;;;;;;6.97;3.75;;;;;;;16.01;71.82;99897.44;2222621;40;20049;-84
2021/07/02 01:16:16;;;;;;;8.23;4.22;;;;;;;16.02;72.06;99895.56;2222426;40;20026;-85
2021/07/02 01:17:48;;;;;;;6.90;4.13;;;;;;;16.04;71.82;99896.22;2222912;40;20040;-85
2021/07/02 01:19:19;;;;;;;6.90;4.00;;;;;;;16.01;71.85;99894.72;2222982;40;20028;-85
2021/07/02 01:20:54;;;;;;;6.78;3.95;;;;;;;15.99;72.18;99893.25;2222916;40;20031;-85
2021/07/02 01:22:27;;;;;;;6.53;3.92;;;;;;;15.93;72.31;99892.13;2222823;40;20029;-84
2021/07/02 01:23:58;;;;;;;6.07;4.00;;;;;;;15.89;72.58;99888.94;2222380;40;20041;-83
2021/07/02 01:25:32;;;;;;;5.88;3.80;;;;;;;15.87;72.88;99890.16;2222418;40;20041;-83
2021/07/02 01:27:04;;;;;;;6.00;3.42;;;;;;;15.83;72.93;99886.13;2222482;40;20021;-83
2021/07/02 01:28:36;;;;;;;6.13;3.17;;;;;;;15.80;72.92;99892.72;2222807;40;20037;-84
2021/07/02 01:32:38;;;;;;;7.20;3.28;;;;;;;15.72;73.29;99892.78;2223176;40;20034;-83
2021/07/02 01:34:09;;;;;;;6.32;3.83;;;;;;;15.72;73.49;99890.94;2222626;40;20228;-83
2021/07/02 01:35:41;;;;;;;6.88;3.60;;;;;;;15.70;73.61;99890.25;2222368;40;20022;-83
2021/07/02 01:37:14;;;;;;;5.88;3.75;;;;;;;15.71;73.73;99894.63;2222294;40;20040;-83
2021/07/02 01:38:46;;;;;;;6.75;3.60;;;;;;;15.74;73.41;99891.59;2222324;40;20036;-82
2021/07/02 01:40:18;;;;;;;6.43;4.10;;;;;;;15.72;73.57;99893.63;2222257;40;20178;-82
2021/07/02 01:41:49;;;;;;;7.57;3.80;;;;;;;15.70;73.55;99890.25;2222396;40;21224;-83
2021/07/02 01:43:21;;;;;;;6.55;3.55;;;;;;;15.65;73.83;99895.38;2222351;40;20049;-83
2021/07/02 01:44:52;;;;;;;14.10;4.78;;;;;;;15.65;73.86;99891.81;2222442;40;20046;-83
2021/07/02 01:48:46;;;;;;;6.47;3.70;;;;;;;15.60;73.98;99892.38;2221801;40;20033;-81
2021/07/02 01:50:17;;;;;;;7.32;3.70;;;;;;;15.60;74.22;99895.06;2221484;40;20470;-81
2021/07/02 01:51:50;;;;;;;6.15;3.30;;;;;;;15.62;73.99;99887.66;2227626;40;20091;-81
2021/07/02 01:53:23;;;;;;;5.43;3.33;;;;;;;15.66;74.17;99886.28;2227789;40;20098;-81
2021/07/02 01:54:55;;;;;;;6.20;3.72;;;;;;;15.72;74.01;99890.94;2228584;40;20037;-83
2021/07/02 01:56:27;;;;;;;8.80;3.83;;;;;;;15.73;73.74;99892.59;2228532;40;20029;-82
2021/07/02 01:57:59;;;;;;;6.78;3.25;;;;;;;15.70;73.67;99887.56;2228102;40;20041;-82
2021/07/02 01:59:31;;;;;;;5.78;3.47;;;;;;;15.70;73.59;99895.66;2228164;40;20021;-81
2021/07/02 02:01:03;;;;;;;5.78;3.42;;;;;;;15.69;73.98;99896.66;2227903;40;20037;-82
2021/07/02 02:02:33;;;;;;;6.32;3.30;;;;;;;15.65;73.95;99884.59;2228212;40;20036;-82
2021/07/02 02:04:05;;;;;;;7.25;3.80;;;;;;;15.65;73.72;99890.00;2227145;40;20033;-81
2021/07/02 02:05:39;;;;;;;7.07;4.05;;;;;;;15.64;74.09;99896.38;2227540;40;20448;-82
2021/07/02 02:07:11;;;;;;;6.18;3.50;;;;;;;15.64;74.16;99899.09;2221395;40;20087;-82
2021/07/02 02:08:44;;;;;;;6.60;3.95;;;;;;;15.65;73.87;99900.75;2221663;40;20038;-81
2021/07/02 02:10:15;;;;;;;7.53;3.38;;;;;;;15.64;74.09;99892.84;2221575;40;20053;-81
2021/07/02 02:11:47;;;;;;;6.13;3.92;;;;;;;15.66;74.06;99891.66;2221703;40;20040;-83
2021/07/02 02:13:19;;;;;;;7.68;3.83;;;;;;;15.67;73.75;99898.72;2221441;40;20034;-82
2021/07/02 02:14:51;;;;;;;6.53;4.25;;;;;;;15.68;73.96;99883.38;2221439;40;20045;-82
2021/07/02 02:16:23;;;;;;;5.72;3.72;;;;;;;15.67;73.78;99889.78;2221657;40;20099;-82
2021/07/02 02:17:55;;;;;;;6.28;3.72;;;;;;;15.67;73.87;99889.78;2222586;40;20037;-83
2021/07/02 02:19:27;;;;;;;8.40;4.30;;;;;;;15.70;73.60;99889.44;2222110;40;20414;-82
2021/07/02 02:20:59;;;;;;;7.07;3.72;;;;;;;15.75;73.90;99889.72;2220716;40;20029;-82
2021/07/02 02:22:31;;;;;;;6.22;3.63;;;;;;;15.78;73.48;99893.91;2221491;40;20034;-82
2021/07/02 02:24:05;;;;;;;6.90;3.90;;;;;;;15.79;73.38;99891.03;2222222;40;20033;-84
2021/07/02 02:25:37;;;;;;;7.13;4.22;;;;;;;15.79;73.29;99882.97;2222873;40;20052;-84
2021/07/02 02:27:09;;;;;;;8.27;4.20;;;;;;;15.79;73.51;99890.19;2222510;40;20042;-84
2021/07/02 02:29:13;;;;;;;6.80;4.50;;;;;;;15.82;73.48;99889.81;2222360;40;20527;-84
2021/07/02 02:30:45;;;;;;;8.32;4.22;;;;;;;15.81;73.53;99896.25;2220128;40;20040;-81
2021/07/02 02:32:18;;;;;;;6.75;4.10;;;;;;;15.78;73.25;99892.06;2218665;40;20365;-82
2021/07/02 02:33:49;;;;;;;7.60;4.57;;;;;;;15.75;73.36;99898.66;2219502;40;20032;-81
2021/07/02 02:35:22;;;;;;;6.75;4.10;;;;;;;15.76;73.31;99888.69;2220225;40;20262;-84
2021/07/02 02:36:53;;;;;;;6.00;3.72;;;;;;;15.78;73.29;99888.50;2222022;40;20050;-83
2021/07/02 02:38:24;;;;;;;5.85;3.25;;;;;;;15.82;73.38;99892.53;2222219;40;20022;-82
2021/07/02 02:39:57;;;;;;;5.70;3.33;;;;;;;15.84;73.36;99894.03;2222198;40;20026;-84
2021/07/02 02:41:28;;;;;;;5.68;3.40;;;;;;;15.88;73.43;99891.81;2222280;40;20033;-83
2021/07/02 02:43:02;;;;;;;7.75;3.53;;;;;;;15.89;73.21;99890.78;2222309;40;20033;-82
2021/07/02 02:44:33;;;;;;;5.50;3.22;;;;;;;15.90;73.24;99897.88;2227098;40;20049;-81
2021/07/02 02:46:05;;;;;;;5.40;3.35;;;;;;;15.88;73.27;99889.13;2227070;40;20044;-82
2021/07/02 02:47:37;;;;;;;6.85;3.35;;;;;;;15.90;73.32;99889.78;2222081;40;20032;-84
2021/07/02 02:49:09;;;;;;;6.97;3.47;;;;;;;15.89;73.60;99894.34;2222584;40;20044;-82
2021/07/02 02:50:40;;;;;;;5.88;3.83;;;;;;;15.89;73.72;99893.50;2222162;40;20112;-83
2021/07/02 02:52:12;;;;;;;6.85;3.28;;;;;;;15.86;73.73;99891.19;2222188;40;20038;-83
2021/07/02 02:53:43;;;;;;;5.55;3.15;;;;;;;15.85;73.72;99893.03;2221790;40;20033;-83
2021/07/02 02:55:16;;;;;;;5.60;3.35;;;;;;;15.86;73.48;99893.88;2222109;40;20028;-83
2021/07/02 02:58:37;;;;;;;6.72;3.78;;;;;;;15.81;74.01;99898.94;2222331;40;20057;-82
2021/07/02 03:00:12;;;;;;;10.00;4.20;;;;;;;15.74;73.94;99894.28;2222411;40;20040;-82
2021/07/02 03:01:43;;;;;;;7.07;4.03;;;;;;;15.69;74.34;99891.28;2222556;40;20036;-85
2021/07/02 03:03:15;;;;;;;7.22;3.60;;;;;;;15.68;74.51;99895.00;2222628;40;20045;-84
2021/07/02 03:37:08;;;;;;;6.30;3.92;;;;;;;15.59;74.07;99912.25;2226471;40;20040;-84
2021/07/02 03:38:42;;;;;;;7.25;3.83;;;;;;;15.59;74.31;99907.72;2202810;40;20042;-80
2021/07/02 03:40:14;;;;;;;6.32;3.97;;;;;;;15.56;74.44;99909.94;2208177;40;20033;-80
2021/07/02 03:42:07;;;;;;;11.38;5.13;;;;;;;15.50;74.10;99907.94;2215143;40;20038;-82
2021/07/02 07:21:55;;;;;;;6.82;4.70;;;;;;;19.26;60.49;99974.09;2226159;40;21125;-89
2021/07/02 07:23:27;;;;;;;7.85;4.72;;;;;;;19.41;59.52;99961.19;2227327;40;20025;-88
2021/07/02 07:24:57;;;;;;;7.72;5.20;;;;;;;19.60;59.38;99974.97;2227843;40;20032;-87
2021/07/02 07:26:29;;;;;;;8.07;5.15;;;;;;;19.66;58.94;99982.28;2227990;40;20029;-85
2021/07/02 07:28:00;;;;;;;8.45;5.25;;;;;;;19.68;58.34;99973.97;2228092;40;20064;-88
2021/07/02 07:29:32;;;;;;;8.00;4.68;;;;;;;19.60;58.77;99980.41;2218787;40;20651;-89
2021/07/02 07:31:05;;;;;;;9.85;5.60;;;;;;;19.68;58.05;99974.78;2216068;40;20044;-84
2021/07/02 07:32:37;;;;;;;7.88;4.70;;;;;;;19.63;57.83;99982.72;2222851;40;20087;-87
2021/07/02 07:34:09;;;;;;;8.13;4.63;;;;;;;19.70;57.94;99971.84;2214913;40;20029;-86
2021/07/02 07:35:43;;;;;;;11.00;4.75;;;;;;;19.77;57.31;99983.56;2227336;40;20020;-86
2021/07/02 07:37:18;;;;;;;8.63;4.95;;;;;;;19.77;57.44;99981.69;2221534;40;20028;-89
2021/07/02 07:38:50;;;;;;;8.40;5.03;;;;;;;19.99;56.81;99983.38;2221478;40;20018;-83
2021/07/02 07:40:22;;;;;;;8.52;4.85;;;;;;;20.17;56.39;99971.91;2222101;40;20017;-86
2021/07/02 07:41:54;;;;;;;8.88;5.15;;;;;;;20.31;55.21;99989.84;2221938;40;20045;-88
2021/07/02 07:43:27;;;;;;;8.40;5.18;;;;;;;20.23;54.98;99980.06;2220368;40;20029;-85
2021/07/02 07:44:58;;;;;;;7.38;4.90;;;;;;;20.15;55.41;99984.84;2214986;40;20054;-88
2021/07/02 07:48:04;;;;;;;8.40;5.40;;;;;;;20.31;54.75;99983.59;2214953;40;20456;-86
2021/07/02 07:49:35;;;;;;;6.93;4.80;;;;;;;20.18;54.79;99979.00;2215080;40;20034;-86
2021/07/02 07:51:19;;;;;;;7.43;4.45;;;;;;;20.08;54.37;99974.84;2209126;40;20035;-87
2021/07/02 07:52:58;;;;;;;9.38;4.70;;;;;;;20.12;53.85;99985.28;2196050;40;20047;-88
2021/07/02 07:54:32;;;;;;;6.88;4.28;;;;;;;20.22;53.93;99986.53;2205834;40;20042;-87
2021/07/02 07:56:04;;;;;;;7.95;5.00;;;;;;;20.34;53.63;99978.56;2196453;40;20031;-84
2021/07/02 07:57:36;;;;;;;8.25;5.05;;;;;;;20.48;53.52;99978.56;2177288;40;20044;-85
2021/07/02 07:59:08;;;;;;;9.77;4.93;;;;;;;20.65;52.90;99985.22;2172946;41;20037;-85
2021/07/02 08:00:42;;;;;;;8.48;4.50;;;;;;;20.72;52.32;99977.03;2171124;40;20038;-91
2021/07/02 08:02:14;;;;;;;7.72;4.70;;;;;;;20.94;52.03;99974.91;2173086;40;20037;-85
2021/07/02 08:03:46;;;;;;;6.70;4.97;;;;;;;21.15;51.26;99970.22;2166585;40;20037;-87
2021/07/02 08:05:18;;;;;;;8.68;5.15;;;;;;;21.10;50.68;99975.47;2172451;41;20033;-84
2021/07/02 08:06:51;;;;;;;7.65;4.70;;;;;;;20.98;50.68;99981.56;2179803;41;20028;-85
2021/07/02 08:08:23;;;;;;;9.05;5.45;;;;;;;21.10;50.56;99975.47;2185119;41;20032;-87
2021/07/02 08:09:55;;;;;;;7.97;4.65;;;;;;;21.00;50.74;99978.66;2184180;41;20040;-83
2021/07/02 08:11:26;;;;;;;9.38;4.47;;;;;;;21.09;50.59;99985.50;2184639;40;20051;-84
2021/07/02 08:12:58;;;;;;;6.78;4.72;;;;;;;21.08;50.29;99980.28;2179212;40;20036;-87
2021/07/02 08:14:29;;;;;;;8.07;4.80;;;;;;;21.02;50.83;99977.38;2189774;40;20023;-86
2021/07/02 08:16:01;;;;;;;11.20;4.93;;;;;;;21.30;50.58;99986.25;2203561;40;20076;-87
2021/07/02 08:17:33;;;;;;;8.80;5.43;;;;;;;21.11;50.84;99988.81;2189377;40;20035;-82
2021/07/02 08:19:05;;;;;;;13.00;5.53;;;;;;;21.03;50.76;99997.22;2186781;40;20138;-85
2021/07/02 08:20:37;;;;;;;8.63;4.85;;;;;;;20.97;50.72;99998.91;2191406;40;20035;-85
2021/07/02 08:22:09;;;;;;;7.30;5.00;;;;;;;21.03;50.44;99995.34;2191328;40;20031;-83
2021/07/02 08:23:42;;;;;;;7.20;4.55;;;;;;;21.04;50.74;99998.91;2185790;40;20020;-85
2021/07/02 08:25:14;;;;;;;7.38;4.88;;;;;;;20.99;50.42;99994.09;2185726;40;20043;-86
2021/07/02 08:26:49;;;;;;;7.30;5.18;;;;;;;21.07;50.68;99994.91;2186038;40;20028;-86
2021/07/02 08:30:11;;;;;;;8.02;5.18;;;;;;;21.23;49.32;99994.44;2191590;40;20064;-87
2021/07/02 08:31:42;;;;;;;8.45;4.47;;;;;;;21.41;49.04;99992.88;2184748;40;20562;-86
2021/07/02 08:33:17;;;;;;;7.22;4.38;;;;;;;21.53;48.88;99988.44;2185661;40;20571;-86
2021/07/02 08:34:49;;;;;;;6.35;4.85;;;;;;;;;;2189518;40;20043;-89
2021/07/02 08:36:21;;;;;;;8.52;4.85;;;;;;;21.61;49.15;99998.22;2186237;40;20036;-85
2021/07/02 08:37:53;;;;;;;6.85;4.57;;;;;;;21.80;48.23;99996.44;2206464;40;20026;-86
2021/07/02 08:39:26;;;;;;;12.65;5.07;;;;;;;22.02;47.82;99993.31;2211942;40;20038;-84
2021/07/02 08:40:59;;;;;;;14.15;5.22;;;;;;;22.06;47.75;99997.28;2209506;40;20063;-87
2021/07/02 08:44:03;;;;;;;7.85;4.80;;;;;;;22.33;46.49;99997.03;2221173;40;21225;-86
2021/07/02 08:45:35;;;;;;;9.32;5.10;;;;;;;22.12;46.89;100001.81;2215388;40;20038;-80
2021/07/02 08:47:09;;;;;;;8.63;5.05;;;;;;;21.86;47.31;100000.16;2219946;40;20039;-85
2021/07/02 08:48:41;;;;;;;7.72;4.97;;;;;;;21.72;47.33;100007.59;2214458;40;20037;-84
2021/07/02 08:50:14;;;;;;;9.10;5.38;;;;;;;21.75;46.57;100002.53;2207237;40;20038;-84
2021/07/02 08:51:47;;;;;;;12.43;5.65;;;;;;;21.71;46.91;100008.63;2208679;40;20050;-84
2021/07/02 08:53:20;;;;;;;7.88;5.13;;;;;;;21.74;46.64;100010.91;2200365;40;20029;-81
2021/07/02 08:54:52;;;;;;;10.02;5.43;;;;;;;21.80;46.39;100012.75;2208799;40;20030;-87
2021/07/02 08:56:25;;;;;;;7.72;5.35;;;;;;;21.89;46.28;99999.72;2208059;40;20092;-87
2021/07/02 08:59:33;;;;;;;8.10;4.72;;;;;;;22.10;45.64;100006.69;2221801;40;20037;-84
2021/07/02 09:01:07;;;;;;;8.55;5.10;;;;;;;22.07;45.54;100004.41;2221538;40;20343;-87
2021/07/02 09:02:41;;;;;;;8.02;4.90;;;;;;;21.94;46.02;100008.06;2216250;40;20081;-83
2021/07/02 09:04:17;;;;;;;8.32;4.90;;;;;;;21.86;46.29;100011.88;2222223;40;20029;-84
2021/07/02 09:05:49;;;;;;;7.07;4.68;;;;;;;21.93;46.51;100000.94;2221840;40;20042;-82
2021/07/02 09:07:21;;;;;;;14.57;6.57;;;;;;;22.29;45.68;100008.38;2222871;40;20025;-84
2021/07/02 09:08:59;;;;;;;18.27;6.43;;;;;;;22.33;44.97;100006.06;2228349;40;20040;-84
2021/07/02 09:10:34;;;;;;;27.08;7.30;;;;;;;22.48;44.46;100003.03;2225587;40;20049;-82
2021/07/02 09:12:08;;;;;;;60.65;11.65;;;;;;;22.37;44.11;100017.34;2214915;40;20018;-82
2021/07/02 09:13:41;;;;;;;15.27;5.45;;;;;;;22.20;43.82;100008.88;2215273;40;20189;-83
2021/07/02 09:15:14;;;;;;;11.80;5.13;;;;;;;22.18;43.82;100011.84;2215116;40;20045;-87
2021/07/02 09:16:48;;;;;;;8.35;5.00;;;;;;;22.17;43.04;100014.78;2215582;40;20030;-85
2021/07/02 09:18:20;;;;;;;9.85;4.70;;;;;;;21.94;43.20;100018.94;2207937;40;20027;-80
2021/07/02 09:20:06;;;;;;;7.72;5.13;;;;;;;21.80;43.46;100010.84;2208273;40;20160;-82
2021/07/02 09:21:38;;;;;;;8.25;5.22;;;;;;;21.68;43.77;100020.75;2221549;40;20025;-85
2021/07/02 09:23:14;;;;;;;17.67;6.50;;;;;;;21.59;43.93;100027.53;2213821;40;20681;-86
2021/07/02 09:24:48;;;;;;;61.85;11.43;;;;;;;21.42;44.41;100016.31;2222078;40;20038;-86
2021/07/02 09:26:39;;;;;;;29.30;7.13;;;;;;;21.69;44.38;100019.72;2221745;40;20091;-80
2021/07/02 09:28:13;;;;;;;29.67;6.97;;;;;;;22.03;43.65;100008.59;2190248;40;20571;-86
2021/07/02 09:29:44;;;;;;;56.00;9.80;;;;;;;22.36;43.09;100010.22;2179157;40;20051;-81
2021/07/02 09:31:32;;;;;;;16.00;5.93;;;;;;;22.72;41.25;100001.28;2178220;40;20237;-81
2021/07/02 09:33:06;;;;;;;11.55;4.88;;;;;;;22.80;40.43;100004.78;2184554;40;20123;-82
2021/07/02 09:34:50;;;;;;;6.15;4.22;;;;;;;22.92;40.37;100002.13;2199550;40;20014;-83
2021/07/02 09:36:29;;;;;;;7.22;4.68;;;;;;;22.95;40.74;99997.06;2189450;40;20821;-85
2021/07/02 09:38:02;;;;;;;8.60;5.07;;;;;;;23.04;40.86;99997.59;2195253;40;20773;-85
2021/07/02 09:39:33;;;;;;;9.65;5.25;;;;;;;22.95;41.29;100002.50;2195370;40;20392;-81
2021/07/02 09:41:06;;;;;;;6.38;4.15;;;;;;;22.92;41.53;100013.03;2201609;40;20034;-80
2021/07/02 09:42:38;;;;;;;12.32;4.45;;;;;;;22.84;41.40;100001.38;2202261;40;20422;-87
2021/07/02 09:44:11;;;;;;;7.22;4.60;;;;;;;22.53;40.82;100013.25;2202711;40;20908;-83
2021/07/02 09:45:48;;;;;;;13.18;4.75;;;;;;;22.16;40.01;100013.09;2203046;40;20027;-83
2021/07/02 09:47:29;;;;;;;8.93;4.70;;;;;;;21.83;40.43;100017.75;2190870;40;20645;-83
2021/07/02 09:49:00;;;;;;;8.27;4.50;;;;;;;21.85;40.09;100018.38;2200773;40;20034;-82
2021/07/02 09:50:31;;;;;;;7.72;4.38;;;;;;;22.02;39.22;100017.81;2202294;40;20031;-85
2021/07/02 09:52:07;;;;;;;10.32;4.97;;;;;;;22.21;38.83;100019.53;2185625;40;20116;-85
2021/07/02 09:53:40;;;;;;;7.65;4.47;;;;;;;22.50;37.41;100010.97;2182582;40;20044;-83
2021/07/02 09:55:11;;;;;;;6.13;4.20;;;;;;;22.87;35.86;100019.97;2186139;40;20043;-81
2021/07/02 09:56:43;;;;;;;8.00;5.25;;;;;;;23.16;34.69;100014.81;2195801;40;20016;-85
2021/07/02 09:58:18;;;;;;;7.65;4.90;;;;;;;23.18;34.92;100018.19;2195044;40;20031;-84
2021/07/02 10:00:12;;;;;;;5.93;3.97;;;;;;;23.29;33.82;100002.13;2195592;40;20071;-81
2021/07/02 10:01:44;;;;;;;5.90;3.92;;;;;;;23.36;33.95;100006.44;2192478;40;20730;-81
2021/07/02 10:03:25;;;;;;;45.13;9.15;;;;;;;23.41;34.10;100007.63;2194733;40;20037;-83
2021/07/02 10:04:59;;;;;;;8.75;4.32;;;;;;;23.39;34.57;100007.84;2191983;40;20072;-82
2021/07/02 10:06:31;;;;;;;8.95;4.65;;;;;;;23.72;34.17;100005.72;2212185;40;20026;-84
2021/07/02 10:08:04;;;;;;;6.75;4.40;;;;;;;24.03;33.67;100007.34;2212525;40;20034;-82
2021/07/02 10:09:47;;;;;;;7.15;4.53;;;;;;;24.17;33.40;100005.25;2214955;40;20053;-85
2021/07/02 10:11:20;;;;;;;14.13;4.93;;;;;;;24.02;33.55;100004.88;2213068;40;20088;-84
2021/07/02 10:12:52;;;;;;;13.48;5.07;;;;;;;23.95;33.80;100005.78;2200609;40;20086;-85
2021/07/02 10:14:26;;;;;;;10.52;4.47;;;;;;;23.96;33.62;100002.00;2212344;40;20048;-82
2021/07/02 10:16:01;;;;;;;6.35;4.22;;;;;;;24.08;33.34;100003.94;2213513;40;20271;-87
2021/07/02 10:17:38;;;;;;;8.85;4.53;;;;;;;24.19;33.09;100007.72;2213478;40;20041;-86
2021/07/02 10:19:10;;;;;;;6.70;4.90;;;;;;;24.14;32.69;100009.28;2215893;40;20022;-81
2021/07/02 10:20:42;;;;;;;6.68;4.25;;;;;;;24.05;32.96;100016.16;2202528;40;20031;-83
2021/07/02 10:22:17;;;;;;;6.60;4.70;;;;;;;24.00;32.81;100013.28;2191742;40;20023;-83
2021/07/02 10:23:51;;;;;;;9.18;5.10;;;;;;;24.24;32.82;99995.03;2184303;40;20091;-81
2021/07/02 10:25:24;;;;;;;7.40;4.85;;;;;;;24.15;33.36;100007.38;2171754;40;20029;-79
2021/07/02 10:26:56;;;;;;;8.50;5.13;;;;;;;24.37;33.10;100004.88;2176460;40;20051;-81
2021/07/02 10:28:29;;;;;;;11.55;5.28;;;;;;;24.47;33.05;100001.56;2172584;41;20831;-82
2021/07/02 10:30:03;;;;;;;7.55;4.93;;;;;;;24.09;33.80;100000.94;2176663;40;20799;-80
2021/07/02 10:31:36;;;;;;;7.72;5.40;;;;;;;23.75;35.02;100017.00;2166308;41;20030;-85
2021/07/02 10:33:08;;;;;;;8.75;5.35;;;;;;;23.63;34.95;100013.38;2186725;40;20023;-81
2021/07/02 10:34:40;;;;;;;6.93;4.50;;;;;;;23.76;33.75;100013.22;2195795;40;20034;-84
2021/07/02 10:36:23;;;;;;;6.43;4.65;;;;;;;24.03;33.25;100004.63;2193471;40;20389;-83
2021/07/02 10:37:57;;;;;;;8.43;4.60;;;;;;;24.27;32.46;100008.22;2196989;40;20467;-85
2021/07/02 10:39:31;;;;;;;7.80;4.50;;;;;;;24.39;32.03;100005.47;2222763;40;20049;-85
2021/07/02 10:41:11;;;;;;;6.72;4.53;;;;;;;24.66;31.94;99991.31;2225604;40;20029;-84
2021/07/02 10:44:25;;;;;;;6.18;4.30;;;;;;;24.72;31.48;100003.25;2208411;40;20121;-84
2021/07/02 10:46:14;;;;;;;8.93;4.88;;;;;;;24.42;31.90;100010.47;2209515;40;20023;-83
2021/07/02 10:47:53;;;;;;;7.72;4.35;;;;;;;24.35;32.20;100008.94;2209578;40;20026;-84
2021/07/02 10:49:35;;;;;;;7.30;5.22;;;;;;;24.62;31.83;100009.28;2203618;40;20027;-83
2021/07/02 10:51:07;;;;;;;7.20;4.63;;;;;;;25.01;31.43;100001.41;2197030;40;20031;-82
2021/07/02 10:52:42;;;;;;;7.43;4.88;;;;;;;25.38;31.07;100002.94;2202478;40;20038;-84
2021/07/02 10:54:32;;;;;;;7.97;4.68;;;;;;;25.83;30.57;100006.81;2190644;40;20034;-85
2021/07/02 10:56:27;;;;;;;7.38;4.80;;;;;;;25.99;30.74;100002.41;2203555;40;20023;-86
2021/07/02 10:57:59;;;;;;;8.63;4.63;;;;;;;26.01;30.57;100020.25;2193901;40;20031;-86
2021/07/02 11:00:01;;;;;;;7.97;4.78;;;;;;;25.68;30.43;100004.63;2203425;40;20031;-84
2021/07/02 11:01:34;;;;;;;6.80;4.80;;;;;;;25.10;31.47;100009.22;2196857;40;20119;-85
2021/07/02 11:03:19;;;;;;;5.85;4.07;;;;;;;24.91;31.62;100012.13;2201633;40;20031;-85
2021/07/02 11:04:52;;;;;;;6.65;4.35;;;;;;;25.13;31.57;100004.09;2203617;40;20039;-83
2021/07/02 11:06:39;;;;;;;6.35;4.40;;;;;;;25.76;30.56;100003.41;2190208;40;20707;-82
2021/07/02 11:08:47;;;;;;;8.07;4.43;;;;;;;26.21;30.42;99994.31;2196476;40;20127;-85
2021/07/02 11:10:18;;;;;;;6.25;3.92;;;;;;;26.79;29.83;99999.56;2200780;40;20023;-85
2021/07/02 11:12:09;;;;;;;6.82;4.63;;;;;;;27.28;28.79;99997.94;2203060;40;20023;-88
2021/07/02 11:13:59;;;;;;;;;;;;;;;27.32;28.24;100007.31;2203799;40;20023;-85
2021/07/02 11:15:31;;;;;;;7.88;4.63;;;;;;;26.70;28.89;100010.09;2203180;40;19934;-83
2021/07/02 11:17:27;;;;;;;6.70;4.82;;;;;;;26.16;29.19;99999.72;2203410;40;20034;-83
2021/07/02 11:19:25;;;;;;;7.18;4.75;;;;;;;25.59;30.16;100009.69;2203391;40;20105;-83
2021/07/02 11:21:13;;;;;;;9.13;4.65;;;;;;;25.39;30.46;100012.81;2203509;40;20031;-84
2021/07/02 11:22:47;;;;;;;7.07;4.10;;;;;;;25.30;31.03;99998.72;2196491;40;20023;-84
2021/07/02 11:25:00;;;;;;;8.32;4.72;;;;;;;25.25;31.20;100005.97;2196567;40;20027;-86
2021/07/02 11:26:45;;;;;;;7.38;5.10;;;;;;;25.11;31.66;100005.44;2202569;40;20058;-82
2021/07/02 11:28:28;;;;;;;8.30;4.82;;;;;;;24.90;31.92;100000.34;2203431;40;20035;-83
2021/07/02 11:30:02;;;;;;;6.85;4.80;;;;;;;24.68;31.99;100002.88;2196021;40;20047;-84
2021/07/02 11:31:38;;;;;;;8.32;4.40;;;;;;;24.49;32.49;99998.59;2196427;40;20030;-83
2021/07/02 11:33:17;;;;;;;6.85;4.70;;;;;;;24.64;32.81;99998.09;2184319;40;20083;-81
2021/07/02 11:35:16;;;;;;;7.00;4.70;;;;;;;24.67;32.64;100005.84;2184396;40;20032;-83
2021/07/02 11:37:12;;;;;;;6.43;4.60;;;;;;;24.91;32.49;99999.28;2197825;40;20681;-85
2021/07/02 11:38:46;;;;;;;8.27;5.13;;;;;;;25.01;32.42;100001.41;2198416;40;20039;-86
2021/07/02 11:40:18;;;;;;;8.68;4.47;;;;;;;24.91;32.95;99998.47;2205132;40;20026;-83
2021/07/02 11:41:51;;;;;;;8.70;5.10;;;;;;;24.67;33.32;100006.66;2205285;40;20038;-88
2021/07/02 11:43:29;;;;;;;7.25;5.20;;;;;;;24.66;33.50;99996.78;2205262;40;20035;-86
2021/07/02 11:45:01;;;;;;;8.60;5.13;;;;;;;24.57;33.07;100006.44;2186381;40;20040;-83
2021/07/02 11:46:33;;;;;;;6.70;4.22;;;;;;;24.40;33.25;99995.41;2186485;40;20526;-86
2021/07/02 11:48:05;;;;;;;6.70;4.72;;;;;;;24.36;33.44;100000.50;2186462;40;20028;-84